Tiempo atmosférico en la estación meteorológica de Montalbán, Dga, Teruel (885 m.)



Fecha
DESCASC
Temp. máxima en grados centígrados (hora)
DESCASC
Temp. mínima en grados centígrados (hora)
DESCASC
Temp. media en grados centígrados
DESCASC
Racha de viento máxima en m/sg (hora)
DESCASC
Velocidad máxima media en intervalos de 10 minutos(hora)
DESCASC
Precipitaciones diarias en mm
DESCASC
Precipitaciones de 00:00 a 06:00 en mm
DESCASC
Precipitaciones de 06:00 a 12:00 en mm
DESCASC
Precipitaciones de 12:00 a 18:00 en mm
DESCASC
Precipitaciones de 18:00 a 24:00 en mm
DESCASC

Gráficas

Temp. máximas Temp. mínimas Temp. medias Precipitaciones Rachas de viento máximas Velocidades máximas media en intervalos de 10 minutos

Datos horarios

Fecha y hora oficial Temperatura (ºC) Velocidad del viento (km/h) Dirección del viento Racha (km/h) Dirección de racha Precipitación (mm) Presión (hPa) Tendencia (hPa) Humedad (%)
2019-11-20 23:00:00 5.6 0 Calma 17 Noroeste 0 -- -- 75
2019-11-20 22:00:00 6.3 6 Sudoeste 21 Sudoeste 0 -- -- 71
2019-11-20 21:00:00 5.7 3 Oeste 12 Noroeste 0 -- -- 66
2019-11-20 20:00:00 4.6 2 Sudeste 12 Sudeste 0 -- -- 69
2019-11-20 19:00:00 5.4 2 Este 9 Sudoeste 0 -- -- 63
2019-11-20 18:00:00 7.6 0 Calma 6 Sudeste 0 -- -- 53
2019-11-20 17:00:00 9.7 0 Calma 6 Sur 0 -- -- 43
2019-11-20 16:00:00 10.7 3 Sudoeste 12 Oeste 0 -- -- 37
2019-11-20 15:00:00 10.9 5 Sudoeste 11 Oeste 0 -- -- 41
2019-11-20 14:00:00 9.2 4 Noroeste 11 Oeste 0 -- -- 46
2019-11-20 13:00:00 7.7 6 Oeste 16 Sudoeste 0 -- -- 54
2019-11-20 12:00:00 6.4 5 Oeste 8 Sudoeste 0 -- -- 62
2019-11-20 11:00:00 3.6 2 Sudoeste 5 Sudeste 0 -- -- 77
2019-11-20 10:00:00 0.8 2 Sur 5 Sudeste 0 -- -- 89
2019-11-20 09:00:00 -1.2 2 Sudeste 4 Sudeste 0 -- -- 94
2019-11-20 08:00:00 -1.9 0 Calma 4 Norte 0 -- -- 94
2019-11-20 07:00:00 -1.5 0 Calma 5 Sudeste 0 -- -- 93
2019-11-20 06:00:00 -1.5 0 Calma 3 Sudeste 0 -- -- 93
2019-11-20 05:00:00 -0.9 0 Calma 5 Este 0 -- -- 92
2019-11-20 04:00:00 -0.7 0 Calma 6 Sudeste 0 -- -- 91
2019-11-20 03:00:00 -0.3 0 Calma 5 Sur 0 -- -- 90
2019-11-20 02:00:00 0.2 2 Sudeste 6 Sudeste 0 -- -- 89
2019-11-20 01:00:00 0.1 2 Sudeste 5 Sudeste 0 -- -- 89
2019-11-20 00:00:00 -0.1 0 Calma 4 Sudeste 0 -- -- 87
2019-11-19 23:00:00 0.4 2 Sudeste 4 Sudeste 0 -- -- 86
2019-11-19 22:00:00 1 0 Calma 5 Sudeste 0 -- -- 84
2019-11-19 21:00:00 1.5 0 Calma 2 Norte 0 -- -- 81
2019-11-19 20:00:00 2.1 0 Calma 6 Norte 0 -- -- 77
2019-11-19 19:00:00 3.6 0 Calma 9 Norte 0 -- -- 72
2019-11-19 18:00:00 5.6 0 Calma 8 Norte 0 -- -- 64
2019-11-19 17:00:00 7.5 4 Oeste 13 Oeste 0 -- -- 57
2019-11-19 16:00:00 8.7 6 Oeste 21 Oeste 0 -- -- 53
2019-11-19 15:00:00 8.9 8 Noroeste 20 Noroeste 0 -- -- 56
2019-11-19 14:00:00 7.9 8 Noroeste 25 Oeste 0 -- -- 58
2019-11-19 13:00:00 6.4 10 Noroeste 26 Noroeste 0 -- -- 63
2019-11-19 12:00:00 5.3 10 Noroeste 23 Oeste 0 -- -- 67
2019-11-19 11:00:00 3.6 5 Oeste 10 Oeste 0 -- -- 76
2019-11-19 10:00:00 0 0 Calma 8 Este 0 -- -- 91
2019-11-19 09:00:00 -2.7 0 Calma 5 Sudeste 0 -- -- 94
2019-11-19 08:00:00 -2.7 0 Calma 4 Oeste 0 -- -- 92
2019-11-19 07:00:00 -1.9 0 Calma 5 Noroeste 0 -- -- 92
2019-11-19 06:00:00 -1.3 0 Calma 5 Sudeste 0 -- -- 89
2019-11-19 05:00:00 -0.5 2 Este 5 Sudeste 0 -- -- 87
2019-11-19 04:00:00 0.3 0 Calma 13 Oeste 0 -- -- 84
2019-11-19 03:00:00 0.9 2 Norte 10 Oeste 0 -- -- 82
2019-11-19 02:00:00 0.9 0 Calma 9 Sudeste 0 -- -- 81
2019-11-19 01:00:00 0.7 3 Este 8 Sudeste 0 -- -- 80
2019-11-19 00:00:00 1.2 3 Sudeste 8 Noroeste 0 -- -- 78
2019-11-18 23:00:00 2.4 4 Noroeste 17 Sudoeste 0 -- -- 74
2019-11-18 22:00:00 2.4 0 Calma 14 Norte 0 -- -- 75
2019-11-18 21:00:00 2.6 3 Noroeste 14 Sudoeste 0 -- -- 77
2019-11-18 20:00:00 3.4 4 Noroeste 13 Norte 0 -- -- 77
2019-11-18 19:00:00 4.1 8 Noroeste 22 Noroeste 0 -- -- 74
2019-11-18 18:00:00 4.4 10 Noroeste 23 Noroeste 0 -- -- 72
2019-11-18 17:00:00 5 8 Oeste 30 Noroeste 0 -- -- 67
2019-11-18 16:00:00 5.2 11 Noroeste 40 Oeste 0 -- -- 66
2019-11-18 15:00:00 5 12 Noroeste 34 Noroeste 0 -- -- 70
2019-11-18 14:00:00 4.9 18 Noroeste 33 Noroeste 0 -- -- 69
2019-11-18 13:00:00 4.9 10 Noroeste 30 Noroeste 0 -- -- 68
2019-11-18 12:00:00 4.3 16 Noroeste 36 Noroeste 0 -- -- 72
2019-11-18 11:00:00 4.1 8 Noroeste 22 Noroeste 0 -- -- 75
2019-11-18 10:00:00 3.5 12 Noroeste 25 Noroeste 0 -- -- 77
2019-11-18 09:00:00 3.4 4 Oeste 13 Noroeste 0 -- -- 78
2019-11-18 08:00:00 3.4 6 Noroeste 21 Noroeste 0 -- -- 80
2019-11-18 07:00:00 3.6 5 Noroeste 13 Oeste 0 -- -- 88
2019-11-18 06:00:00 3.7 4 Noroeste 8 Noroeste 0 -- -- 89
2019-11-18 05:00:00 3.8 3 Noroeste 12 Sudoeste 0 -- -- 87
2019-11-18 04:00:00 3.8 4 Noroeste 8 Noroeste 0 -- -- 87
2019-11-18 03:00:00 2.8 0 Calma 7 Norte 0 -- -- 93
2019-11-18 02:00:00 3 3 Noroeste 7 Noroeste 0 -- -- 93
2019-11-18 01:00:00 3.7 0 Calma 7 Noroeste 0 -- -- 92
2019-11-18 00:00:00 4.6 3 Noroeste 8 Oeste 0 -- -- 91
2019-11-17 23:00:00 5 2 Noroeste 7 Oeste 0.6 -- -- 91
2019-11-17 22:00:00 5.2 3 Oeste 11 Noroeste 0 -- -- 90
2019-11-17 21:00:00 5.3 4 Oeste 12 Oeste 0 -- -- 89
2019-11-17 20:00:00 5.6 6 Noroeste 16 Oeste 0.4 -- -- 88
2019-11-17 19:00:00 6.5 8 Noroeste 20 Noroeste 0 -- -- 81
2019-11-17 18:00:00 6.9 12 Noroeste 23 Norte 0 -- -- 79
2019-11-17 17:00:00 7.5 8 Noroeste 31 Sudoeste 0 -- -- 77
2019-11-17 16:00:00 6.8 12 Oeste 32 Oeste 0.2 -- -- 79
2019-11-17 15:00:00 9.6 14 Oeste 36 Noroeste 0 -- -- 62
2019-11-17 14:00:00 10.7 17 Oeste 37 Sudoeste 0 -- -- 56
2019-11-17 13:00:00 8.4 15 Oeste 32 Oeste 0 -- -- 60
2019-11-17 12:00:00 6.8 11 Oeste 33 Oeste 0 -- -- 62
2019-11-17 11:00:00 5.5 14 Oeste 30 Norte 0 -- -- 64
2019-11-17 10:00:00 4.8 10 Noroeste 25 Oeste 0 -- -- 67
2019-11-17 09:00:00 2.2 8 Noroeste 20 Noroeste 0 -- -- 74
2019-11-17 08:00:00 1.7 5 Noroeste 26 Noroeste 0 -- -- 74
2019-11-17 07:00:00 1.9 8 Noroeste 31 Oeste 0 -- -- 74
2019-11-17 06:00:00 2.4 12 Oeste 29 Oeste 0 -- -- 74
2019-11-17 05:00:00 1.9 8 Noroeste 23 Noroeste 0 -- -- 75
2019-11-17 04:00:00 1.7 3 Nordeste 18 Oeste 0 -- -- 76
2019-11-17 03:00:00 1.7 6 Noroeste 20 Noroeste 0 -- -- 77
2019-11-17 02:00:00 2.7 6 Noroeste 24 Oeste 0 -- -- 73
2019-11-17 01:00:00 3 9 Noroeste 17 Noroeste 0 -- -- 72
2019-11-17 00:00:00 3.2 8 Noroeste 17 Noroeste 0 -- -- 72
2019-11-16 23:00:00 3.1 7 Noroeste 15 Noroeste 0 -- -- 72
2019-11-16 22:00:00 2.6 5 Noroeste 18 Oeste 0 -- -- 74
2019-11-16 21:00:00 3.2 8 Noroeste 19 Noroeste 0 -- -- 73
2019-11-16 20:00:00 3.2 7 Noroeste 15 Noroeste 0 -- -- 74
2019-11-16 19:00:00 3.6 5 Norte 16 Norte 0 -- -- 72
2019-11-16 18:00:00 4.2 4 Oeste 24 Oeste 0 -- -- 69
2019-11-16 17:00:00 5.3 12 Noroeste 24 Noroeste 0 -- -- 63
2019-11-16 16:00:00 6.7 10 Oeste 24 Noroeste 0 -- -- 58
2019-11-16 15:00:00 7.4 9 Oeste 23 Noroeste 0 -- -- 53
2019-11-16 14:00:00 7.1 8 Oeste 25 Sudoeste 0 -- -- 54
2019-11-16 13:00:00 6 8 Oeste 18 Noroeste 0 -- -- 60
2019-11-16 12:00:00 4.5 6 Oeste 16 Oeste 0 -- -- 62
2019-11-16 11:00:00 3.4 5 Noroeste 16 Oeste 0 -- -- 70
2019-11-16 10:00:00 2 4 Oeste 14 Oeste 0 -- -- 78
2019-11-16 09:00:00 -0.1 0 Calma 4 Sudeste 0 -- -- 86
2019-11-16 08:00:00 0.5 2 Sudeste 6 Sudeste 0 -- -- 83
2019-11-16 07:00:00 1.3 4 Noroeste 17 Norte 0 -- -- 79
2019-11-16 06:00:00 1.6 3 Norte 9 Oeste 0 -- -- 82
2019-11-16 05:00:00 2.5 0 Calma 8 Noroeste 0 -- -- 79
2019-11-16 04:00:00 2.4 3 Norte 12 Noroeste 0 -- -- 80
2019-11-16 03:00:00 2.4 7 Noroeste 14 Oeste 0 -- -- 80
2019-11-16 02:00:00 2.7 2 Norte 12 Oeste 0 -- -- 82
2019-11-16 01:00:00 2.8 3 Noroeste 5 Noroeste 0 -- -- 83
2019-11-16 00:00:00 2.8 0 Calma 12 Noroeste 0 -- -- 84
2019-11-15 23:00:00 3.2 4 Noroeste 11 Oeste 0 -- -- 81
2019-11-15 22:00:00 2.6 4 Sudeste 9 Norte 0 -- -- 83
2019-11-15 21:00:00 3 4 Norte 13 Sudoeste 0 -- -- 80
2019-11-15 20:00:00 2.9 3 Noroeste 32 Noroeste 0 -- -- 82
2019-11-15 19:00:00 3.7 9 Noroeste 32 Noroeste 0 -- -- 81
2019-11-15 18:00:00 4.5 4 Noroeste 23 Oeste 0 -- -- 70
2019-11-15 17:00:00 5.1 9 Oeste 30 Norte 0 -- -- 67
2019-11-15 16:00:00 5.7 15 Noroeste 39 Noroeste 0 -- -- 63
2019-11-15 15:00:00 6.7 16 Noroeste 32 Noroeste 0 -- -- 62
2019-11-15 14:00:00 6.2 10 Oeste 29 Sudoeste 0 -- -- 66
2019-11-15 13:00:00 5.3 9 Oeste 24 Oeste 0 -- -- 69
2019-11-15 12:00:00 4.7 12 Oeste 31 Oeste 0 -- -- 70
2019-11-15 11:00:00 4.6 12 Oeste 27 Sudoeste 0 -- -- 71
2019-11-15 10:00:00 2.9 11 Oeste 37 Oeste 0 -- -- 78
2019-11-15 09:00:00 2 9 Oeste 27 Oeste 0 -- -- 78
2019-11-15 08:00:00 1.5 11 Oeste 26 Sudoeste 0 -- -- 78
2019-11-15 07:00:00 1.8 9 Noroeste 24 Noroeste 0 -- -- 76
2019-11-15 06:00:00 2 8 Oeste 19 Noroeste 0 -- -- 83
2019-11-15 05:00:00 2 6 Noroeste 18 Oeste 0 -- -- 84
2019-11-15 04:00:00 2.2 8 Oeste 21 Oeste 0 -- -- 82
2019-11-15 03:00:00 2.2 2 Oeste 12 Sudoeste 0 -- -- 83
2019-11-15 02:00:00 2.2 5 Noroeste 15 Noroeste 0 -- -- 83
2019-11-15 01:00:00 2 8 Noroeste 28 Oeste 0 -- -- 81
2019-11-15 00:00:00 2.5 10 Oeste 26 Oeste 0 -- -- 84
2019-11-14 23:00:00 2.7 3 Norte 7 Norte 0 -- -- 86
2019-11-14 22:00:00 2.5 2 Sudeste 18 Sudoeste 0.4 -- -- 88
2019-11-14 21:00:00 4.4 10 Sur 23 Sudeste 0 -- -- 67
2019-11-14 20:00:00 4.7 5 Noroeste 21 Noroeste 0 -- -- 63
2019-11-14 19:00:00 4.9 5 Sur 21 Sudoeste 0 -- -- 61
2019-11-14 18:00:00 5.1 6 Sudoeste 20 Oeste 0 -- -- 56
2019-11-14 17:00:00 6.5 9 Oeste 29 Sudoeste 0 -- -- 54
2019-11-14 16:00:00 6.5 10 Oeste 37 Noroeste 0 -- -- 57
2019-11-14 15:00:00 6.9 14 Oeste 35 Noroeste 0 -- -- 57
2019-11-14 14:00:00 6.7 12 Oeste 30 Noroeste 0 -- -- 68
2019-11-14 13:00:00 3.7 9 Oeste 23 Oeste 0 -- -- 83
2019-11-14 12:00:00 2.4 0 Calma 13 Sudeste 0 -- -- 93
2019-11-14 11:00:00 1.2 3 Sur 8 Sudeste 0.4 -- -- 93
2019-11-14 10:00:00 0.9 0 Calma 22 Noroeste 3.2 -- -- 91
2019-11-14 09:00:00 2.6 24 Noroeste 55 Oeste 0 -- -- 83
2019-11-14 08:00:00 8.7 9 Sur 24 Sudoeste 0 -- -- 68
2019-11-14 07:00:00 9.9 11 Oeste 29 Sudoeste 0 -- -- 61
2019-11-14 06:00:00 9.9 8 Oeste 27 Oeste 0 -- -- 63
2019-11-14 05:00:00 10.3 12 Oeste 32 Sudoeste 0 -- -- 61
2019-11-14 04:00:00 9.7 7 Sudoeste 23 Sudoeste 0 -- -- 67
2019-11-14 03:00:00 9.6 4 Norte 19 Oeste 0 -- -- 65
2019-11-14 02:00:00 9.1 3 Nordeste 24 Oeste 0 -- -- 68
2019-11-14 01:00:00 9.9 15 Oeste 45 Oeste 0 -- -- 63
2019-11-14 00:00:00 9.8 13 Sudoeste 31 Sur 0 -- -- 62
2019-11-13 23:00:00 9 10 Sudoeste 28 Sur 0 -- -- 65
2019-11-13 22:00:00 7 5 Sudeste 13 Sudoeste 0 -- -- 74
2019-11-13 21:00:00 4.3 2 Este 5 Noroeste 0 -- -- 84
2019-11-13 20:00:00 5.1 0 Calma 9 Nordeste 0 -- -- 79
2019-11-13 19:00:00 6.6 0 Calma 5 Sudeste 0 -- -- 76
2019-11-13 18:00:00 8.3 2 Norte 11 Noroeste 0 -- -- 71
2019-11-13 17:00:00 9.8 5 Oeste 21 Noroeste 0 -- -- 70
2019-11-13 16:00:00 9.3 8 Noroeste 26 Norte 0 -- -- 70
2019-11-13 15:00:00 9.9 14 Noroeste 29 Noroeste 0 -- -- 67
2019-11-13 14:00:00 9.2 20 Noroeste 45 Noroeste 0 -- -- 68
2019-11-13 13:00:00 9.9 18 Noroeste 36 Oeste 0 -- -- 69
2019-11-13 12:00:00 8.8 18 Noroeste 36 Noroeste 0 -- -- 78
2019-11-13 11:00:00 7.2 8 Noroeste 19 Noroeste 0 -- -- 90
2019-11-13 10:00:00 6.5 10 Noroeste 39 Noroeste 0.2 -- -- 90
2019-11-13 09:00:00 7.3 6 Noroeste 16 Noroeste 0.6 -- -- 96
2019-11-13 08:00:00 7 2 Norte 6 Norte 0.6 -- -- 95
2019-11-13 07:00:00 6.9 2 Este 7 Norte 1 -- -- 94
2019-11-13 06:00:00 6.9 0 Calma 6 Sudeste 0.6 -- -- 94
2019-11-13 05:00:00 6.8 2 Este 12 Sudoeste 0.4 -- -- 91
2019-11-13 04:00:00 6.5 4 Noroeste 16 Noroeste 1.4 -- -- 91
2019-11-13 03:00:00 7.9 8 Oeste 24 Oeste 0 -- -- 77
2019-11-13 02:00:00 7.2 6 Oeste 22 Sudoeste 0 -- -- 76
2019-11-13 01:00:00 6.4 8 Oeste 20 Oeste 0 -- -- 79
2019-11-13 00:00:00 6.3 6 Noroeste 22 Oeste 0 -- -- 78
2019-11-12 23:00:00 6.8 9 Oeste 30 Noroeste 0.2 -- -- 72
2019-11-12 22:00:00 6.9 9 Oeste 22 Noroeste 0 -- -- 71
2019-11-12 21:00:00 5.8 2 Sudeste 6 Oeste 0 -- -- 73
2019-11-12 20:00:00 6.3 3 Norte 16 Oeste 0 -- -- 70
2019-11-12 19:00:00 7.1 8 Oeste 18 Sudoeste 0 -- -- 67
2019-11-12 18:00:00 7.6 6 Oeste 21 Oeste 0 -- -- 63
2019-11-12 17:00:00 8.8 8 Noroeste 28 Noroeste 0 -- -- 57
2019-11-12 16:00:00 10.2 13 Noroeste 29 Oeste 0 -- -- 53
2019-11-12 15:00:00 9.9 10 Noroeste 34 Noroeste 0 -- -- 57
2019-11-12 14:00:00 9.6 14 Noroeste 31 Noroeste 0 -- -- 59
2019-11-12 13:00:00 8.7 14 Noroeste 29 Noroeste 0 -- -- 60
2019-11-12 12:00:00 7.3 11 Oeste 27 Sudoeste 0 -- -- 69
2019-11-12 11:00:00 5.7 8 Oeste 20 Oeste 0 -- -- 74
2019-11-12 10:00:00 4.9 7 Noroeste 25 Noroeste 0 -- -- 76
2019-11-12 09:00:00 4.9 7 Noroeste 15 Oeste 0 -- -- 75
2019-11-12 08:00:00 4 5 Oeste 12 Oeste 0 -- -- 77
2019-11-12 07:00:00 3.2 6 Noroeste 14 Oeste 0 -- -- 78
2019-11-12 06:00:00 3.2 6 Oeste 18 Sudoeste 0 -- -- 78
2019-11-12 05:00:00 3.1 6 Oeste 20 Oeste 0 -- -- 77
2019-11-12 04:00:00 3.2 4 Sudoeste 17 Oeste 0 -- -- 74
2019-11-12 03:00:00 3.9 8 Oeste 21 Oeste 0 -- -- 71
2019-11-12 02:00:00 4 4 Sudoeste 14 Oeste 0 -- -- 72
2019-11-12 01:00:00 4.2 2 Sudoeste 19 Sudoeste 0 -- -- 73
2019-11-12 00:00:00 4.2 7 Noroeste 40 Noroeste 0 -- -- 73
2019-11-11 23:00:00 4.6 21 Noroeste 37 Norte 0 -- -- 72
2019-11-11 22:00:00 5.1 19 Noroeste 40 Noroeste 0 -- -- 70
2019-11-11 21:00:00 5.3 12 Noroeste 45 Norte 0 -- -- 72
2019-11-11 20:00:00 5.9 8 Noroeste 33 Noroeste 0 -- -- 69
2019-11-11 19:00:00 6.5 9 Noroeste 31 Noroeste 0 -- -- 74
2019-11-11 18:00:00 7.1 13 Noroeste 41 Noroeste 0 -- -- 75
2019-11-11 17:00:00 8.2 17 Noroeste 32 Noroeste 0 -- -- 77
2019-11-11 16:00:00 7 9 Noroeste 27 Noroeste 0.4 -- -- 86
2019-11-11 15:00:00 6.8 14 Noroeste 40 Sudoeste 0 -- -- 83
2019-11-11 14:00:00 7.7 17 Oeste 41 Oeste 0 -- -- 73
2019-11-11 13:00:00 7.2 13 Noroeste 35 Noroeste 0 -- -- 73
2019-11-11 12:00:00 7 10 Noroeste 25 Sudoeste 0 -- -- 70
2019-11-11 11:00:00 6.4 10 Noroeste 23 Oeste 0 -- -- 72
2019-11-11 10:00:00 4.6 6 Oeste 18 Oeste 0 -- -- 78
2019-11-11 09:00:00 3.6 6 Oeste 25 Oeste 0 -- -- 82
2019-11-11 08:00:00 3.1 10 Noroeste 27 Oeste 0 -- -- 83
2019-11-11 07:00:00 2.5 8 Noroeste 19 Noroeste 0 -- -- 84
2019-11-11 06:00:00 2.1 2 Noroeste 11 Oeste 0 -- -- 82
2019-11-11 05:00:00 1.8 2 Norte 16 Oeste 0 -- -- 83
2019-11-11 04:00:00 2.2 7 Noroeste 23 Sudoeste 0 -- -- 81
2019-11-11 03:00:00 1.9 4 Noroeste 15 Oeste 0 -- -- 82
2019-11-11 02:00:00 1.9 6 Oeste 19 Oeste 0 -- -- 82
2019-11-11 01:00:00 2 6 Noroeste 21 Noroeste 0 -- -- 80
2019-11-11 00:00:00 1.6 4 Norte 10 Norte 0 -- -- 79
2019-11-10 23:00:00 1.6 5 Noroeste 10 Noroeste 0 -- -- 81
2019-11-10 22:00:00 2.3 4 Sudeste 10 Norte 0 -- -- 79
2019-11-10 21:00:00 3.4 8 Noroeste 15 Noroeste 0 -- -- 74
2019-11-10 20:00:00 4.3 7 Noroeste 27 Noroeste 0 -- -- 69
2019-11-10 19:00:00 4.8 3 Norte 14 Norte 0 -- -- 76
2019-11-10 18:00:00 4.6 6 Noroeste 35 Oeste 0 -- -- 78
2019-11-10 17:00:00 5.8 12 Noroeste 36 Noroeste 0 -- -- 67
2019-11-10 16:00:00 6 13 Noroeste 44 Norte 0 -- -- 66
2019-11-10 15:00:00 6 12 Noroeste 37 Noroeste 0 -- -- 67
2019-11-10 14:00:00 5.7 17 Noroeste 34 Noroeste 0 -- -- 68
2019-11-10 13:00:00 5.9 12 Noroeste 31 Noroeste 0 -- -- 70
2019-11-10 12:00:00 5.7 14 Noroeste 31 Noroeste 0 -- -- 70
2019-11-10 11:00:00 4.8 15 Noroeste 28 Oeste 0 -- -- 77
2019-11-10 10:00:00 3.4 8 Noroeste 22 Noroeste 0 -- -- 83
2019-11-10 09:00:00 2.6 4 Oeste 12 Oeste 0 -- -- 87
2019-11-10 08:00:00 2.2 6 Noroeste 13 Noroeste 0 -- -- 88
2019-11-10 07:00:00 2.2 3 Noroeste 15 Norte 0 -- -- 91
2019-11-10 06:00:00 2 0 Calma 10 Noroeste 0 -- -- 90
2019-11-10 05:00:00 2.2 0 Calma 12 Noroeste 0 -- -- 89
2019-11-10 04:00:00 2.3 5 Noroeste 17 Norte 0 -- -- 90
2019-11-10 03:00:00 2.7 4 Noroeste 10 Noroeste 0 -- -- 93
2019-11-10 02:00:00 2.2 2 Noroeste 16 Noroeste 1.2 -- -- 92
2019-11-10 01:00:00 2.7 9 Noroeste 50 Oeste 2.6 -- -- 90
2019-11-10 00:00:00 8 14 Oeste 35 Oeste 0 -- -- 72
2019-11-09 23:00:00 7.4 8 Oeste 26 Oeste 0 -- -- 74
2019-11-09 22:00:00 7.4 3 Norte 16 Oeste 0 -- -- 71
2019-11-09 21:00:00 8.2 5 Oeste 31 Oeste 0 -- -- 67
2019-11-09 20:00:00 8.9 8 Noroeste 38 Oeste 0 -- -- 64
2019-11-09 19:00:00 9 15 Oeste 36 Oeste 0 -- -- 63
2019-11-09 18:00:00 9.2 13 Oeste 31 Sudoeste 0 -- -- 64
2019-11-09 17:00:00 10 14 Oeste 29 Oeste 0 -- -- 59
2019-11-09 16:00:00 10.3 11 Oeste 29 Oeste 0 -- -- 57
2019-11-09 15:00:00 10.5 9 Noroeste 28 Noroeste 0 -- -- 55
2019-11-09 14:00:00 9.8 12 Noroeste 27 Noroeste 0 -- -- 57
2019-11-09 13:00:00 9.1 11 Noroeste 24 Noroeste 0 -- -- 59
2019-11-09 12:00:00 7.9 9 Noroeste 24 Oeste 0 -- -- 63
2019-11-09 11:00:00 6.6 9 Oeste 28 Sudoeste 0 -- -- 67
2019-11-09 10:00:00 4.9 12 Noroeste 29 Oeste 0 -- -- 73
2019-11-09 09:00:00 3.7 7 Noroeste 18 Noroeste 0 -- -- 79
2019-11-09 08:00:00 3 5 Noroeste 24 Oeste 0 -- -- 79
2019-11-09 07:00:00 3.1 8 Oeste 27 Oeste 0 -- -- 79
2019-11-09 06:00:00 2.8 7 Oeste 22 Noroeste 0 -- -- 79
2019-11-09 05:00:00 2.9 9 Noroeste 24 Oeste 0 -- -- 78
2019-11-09 04:00:00 3.4 9 Noroeste 21 Norte 0 -- -- 75
2019-11-09 03:00:00 4 8 Noroeste 19 Noroeste 0 -- -- 71
2019-11-09 02:00:00 4.5 7 Oeste 24 Oeste 0 -- -- 70
2019-11-09 01:00:00 5 8 Noroeste 21 Oeste 0 -- -- 71
2019-11-09 00:00:00 5.7 10 Noroeste 31 Noroeste 0 -- -- 69
2019-11-08 23:00:00 6 12 Noroeste 23 Noroeste 0 -- -- 70
2019-11-08 22:00:00 5.9 10 Noroeste 31 Norte 0 -- -- 72
2019-11-08 21:00:00 5.4 8 Noroeste 29 Noroeste 0.2 -- -- 80
2019-11-08 20:00:00 4.7 6 Noroeste 44 Norte 0.4 -- -- 86
2019-11-08 19:00:00 4.6 3 Noroeste 37 Noroeste 0.4 -- -- 84
2019-11-08 18:00:00 6.6 23 Noroeste 49 Noroeste 0 -- -- 68
2019-11-08 17:00:00 6.5 18 Noroeste 54 Noroeste 0 -- -- 67
2019-11-08 16:00:00 7.9 23 Noroeste 56 Noroeste 0 -- -- 52
2019-11-08 15:00:00 8.3 22 Noroeste 50 Sudoeste 0 -- -- 51
2019-11-08 14:00:00 9 16 Oeste 53 Noroeste 0 -- -- 52
2019-11-08 13:00:00 7.7 17 Oeste 52 Noroeste 0 -- -- 55
2019-11-08 12:00:00 6.9 16 Noroeste 39 Noroeste 0 -- -- 59
2019-11-08 11:00:00 5.4 18 Noroeste 40 Oeste 0 -- -- 64
2019-11-08 10:00:00 4.8 13 Oeste 40 Noroeste 0 -- -- 66
2019-11-08 09:00:00 3.4 14 Oeste 33 Sudoeste 0 -- -- 69
2019-11-08 08:00:00 3.1 12 Oeste 35 Oeste 0 -- -- 68
2019-11-08 07:00:00 3.3 14 Oeste 42 Oeste 0 -- -- 65
2019-11-08 06:00:00 3.4 13 Oeste 35 Sudoeste 0 -- -- 65
2019-11-08 05:00:00 3.5 14 Oeste 37 Oeste 0 -- -- 66
2019-11-08 04:00:00 3.6 10 Oeste 32 Sudoeste 0 -- -- 68
2019-11-08 03:00:00 3.8 14 Oeste 38 Noroeste 0 -- -- 63
2019-11-08 02:00:00 4.3 11 Oeste 33 Sur 0 -- -- 66
2019-11-08 01:00:00 4.8 14 Oeste 32 Oeste 0 -- -- 66
2019-11-08 00:00:00 4.7 7 Noroeste 22 Sudoeste 0 -- -- 69
2019-11-07 23:00:00 4.8 7 Oeste 34 Sudoeste 0 -- -- 69
2019-11-07 22:00:00 5.1 9 Oeste 27 Sudoeste 0 -- -- 70
2019-11-07 21:00:00 6.5 9 Oeste 26 Oeste 0 -- -- 65
2019-11-07 20:00:00 7.3 4 Noroeste 15 Noroeste 0 -- -- 54
2019-11-07 19:00:00 7.2 0 Calma 5 Oeste 0 -- -- 56
2019-11-07 18:00:00 8 0 Calma 20 Noroeste 0 -- -- 52
2019-11-07 17:00:00 10 6 Oeste 22 Noroeste 0 -- -- 50
2019-11-07 16:00:00 9.9 9 Noroeste 31 Oeste 0 -- -- 53
2019-11-07 15:00:00 9.7 9 Noroeste 30 Noroeste 0 -- -- 62
2019-11-07 14:00:00 10 10 Oeste 31 Oeste 0 -- -- 61
2019-11-07 13:00:00 9.5 8 Oeste 24 Noroeste 0.2 -- -- 70
2019-11-07 12:00:00 10.6 7 Noroeste 18 Sudoeste 0 -- -- 77
2019-11-07 11:00:00 9.1 8 Oeste 25 Oeste 0.2 -- -- 85
2019-11-07 10:00:00 11.6 12 Oeste 27 Sudoeste 0 -- -- 65
2019-11-07 09:00:00 9.9 9 Sudoeste 28 Sudoeste 0 -- -- 72
2019-11-07 08:00:00 8.3 3 Norte 10 Noroeste 0 -- -- 75
2019-11-07 07:00:00 7.7 2 Nordeste 6 Sudoeste 0 -- -- 75
2019-11-07 06:00:00 8.2 3 Noroeste 17 Oeste 0 -- -- 72
2019-11-07 05:00:00 8.8 9 Noroeste 36 Sudoeste 0 -- -- 68
2019-11-07 04:00:00 8.4 4 Sur 25 Sudoeste 0 -- -- 67
2019-11-07 03:00:00 8.3 12 Sudoeste 27 Sudoeste 0 -- -- 65
2019-11-07 02:00:00 8.7 10 Sur 29 Oeste 0 -- -- 63
2019-11-07 01:00:00 8.8 10 Sudoeste 32 Sudoeste 0 -- -- 61
2019-11-07 00:00:00 7.1 4 Noroeste 11 Noroeste 0 -- -- 68
2019-11-06 23:00:00 6.6 3 Sudeste 11 Norte 0 -- -- 71
2019-11-06 22:00:00 7.1 4 Norte 10 Norte 0 -- -- 70
2019-11-06 21:00:00 6.4 3 Norte 8 Noroeste 0 -- -- 75
2019-11-06 20:00:00 6.9 0 Calma 4 Noroeste 0 -- -- 72
2019-11-06 19:00:00 8.2 0 Calma 4 Oeste 0 -- -- 66
2019-11-06 18:00:00 9.5 3 Noroeste 17 Oeste 0 -- -- 60
2019-11-06 17:00:00 11.3 10 Noroeste 26 Noroeste 0 -- -- 54
2019-11-06 16:00:00 12.8 9 Noroeste 29 Noroeste 0 -- -- 49
2019-11-06 15:00:00 12.8 10 Oeste 31 Noroeste 0 -- -- 50
2019-11-06 14:00:00 12.4 14 Oeste 33 Noroeste 0 -- -- 52
2019-11-06 13:00:00 11 10 Oeste 26 Oeste 0 -- -- 58
2019-11-06 12:00:00 9.1 11 Oeste 41 Oeste 0 -- -- 65
2019-11-06 11:00:00 8.5 12 Oeste 29 Noroeste 0 -- -- 68
2019-11-06 10:00:00 7 13 Oeste 24 Oeste 0 -- -- 74
2019-11-06 09:00:00 6 9 Noroeste 19 Noroeste 0 -- -- 78
2019-11-06 08:00:00 5.6 5 Noroeste 14 Noroeste 0 -- -- 80
2019-11-06 07:00:00 5.9 8 Noroeste 23 Sudoeste 0 -- -- 79
2019-11-06 06:00:00 6.2 7 Noroeste 19 Oeste 0 -- -- 79
2019-11-06 05:00:00 6 8 Oeste 19 Sudoeste 0 -- -- 80
2019-11-06 04:00:00 6 7 Oeste 25 Oeste 0 -- -- 79
2019-11-06 03:00:00 6.1 9 Oeste 24 Oeste 0 -- -- 79
2019-11-06 02:00:00 6.8 9 Oeste 26 Oeste 0 -- -- 75
2019-11-06 01:00:00 6.7 7 Oeste 22 Oeste 0 -- -- 76
2019-11-06 00:00:00 6.7 3 Sudoeste 17 Oeste 0 -- -- 77
2019-11-05 23:00:00 7.2 7 Noroeste 19 Noroeste 0 -- -- 77
2019-11-05 22:00:00 7.4 8 Noroeste 22 Oeste 0 -- -- 77
2019-11-05 21:00:00 7.7 8 Oeste 20 Sudoeste 0 -- -- 75
2019-11-05 20:00:00 7.5 8 Oeste 23 Sudoeste 0 -- -- 75
2019-11-05 19:00:00 7.6 6 Noroeste 17 Noroeste 0 -- -- 77
2019-11-05 18:00:00 7.4 8 Noroeste 49 Noroeste 0.2 -- -- 75
2019-11-05 17:00:00 9.2 14 Oeste 36 Oeste 0 -- -- 69
2019-11-05 16:00:00 10.1 23 Noroeste 44 Oeste 0 -- -- 65
2019-11-05 15:00:00 11.6 18 Oeste 57 Oeste 0 -- -- 57
2019-11-05 14:00:00 11.2 17 Noroeste 44 Noroeste 0 -- -- 59
2019-11-05 13:00:00 10.1 20 Oeste 45 Sudoeste 0 -- -- 60
2019-11-05 12:00:00 9.6 17 Oeste 39 Oeste 0 -- -- 60
2019-11-05 11:00:00 9.2 16 Oeste 49 Noroeste 0 -- -- 62
2019-11-05 10:00:00 8.2 19 Oeste 46 Oeste 0 -- -- 67
2019-11-05 09:00:00 7.5 19 Oeste 41 Oeste 0 -- -- 67
2019-11-05 08:00:00 7 10 Oeste 34 Noroeste 0 -- -- 70
2019-11-05 07:00:00 7 13 Oeste 36 Oeste 0 -- -- 73
2019-11-05 06:00:00 7.2 11 Oeste 28 Oeste 0 -- -- 74
2019-11-05 05:00:00 7.2 3 Noroeste 30 Sudoeste 0 -- -- 78
2019-11-05 04:00:00 7.1 5 Noroeste 28 Sudoeste 0 -- -- 81
2019-11-05 03:00:00 8 10 Oeste 28 Sudoeste 0 -- -- 76
2019-11-05 02:00:00 8.2 8 Oeste 19 Oeste 0 -- -- 83
2019-11-05 01:00:00 8.9 2 Oeste 16 Noroeste 0.2 -- -- 89
2019-11-05 00:00:00 9.3 5 Oeste 18 Sudoeste 0.8 -- -- 89
2019-11-04 23:00:00 9.9 9 Noroeste 36 Noroeste 3.2 -- -- 87
2019-11-04 22:00:00 14.1 10 Sudoeste 27 Oeste 0 -- -- 62
2019-11-04 21:00:00 14.2 13 Oeste 36 Oeste 0 -- -- 60
2019-11-04 20:00:00 14.1 15 Sudoeste 40 Sudoeste 0 -- -- 59
2019-11-04 19:00:00 14.4 14 Oeste 38 Sur 0 -- -- 57
2019-11-04 18:00:00 15 16 Oeste 42 Oeste 0 -- -- 54
2019-11-04 17:00:00 16.2 13 Oeste 34 Noroeste 0 -- -- 52
2019-11-04 16:00:00 17.4 13 Oeste 35 Noroeste 0 -- -- 48
2019-11-04 15:00:00 16.7 14 Noroeste 40 Noroeste 0 -- -- 50
2019-11-04 14:00:00 17 14 Oeste 49 Oeste 0 -- -- 53
2019-11-04 13:00:00 16.6 16 Oeste 45 Sudoeste 0 -- -- 50
2019-11-04 12:00:00 15.8 15 Oeste 49 Oeste 0 -- -- 53
2019-11-04 11:00:00 15.6 15 Oeste 36 Sudoeste 0 -- -- 55
2019-11-04 10:00:00 14.5 11 Sudoeste 30 Sudoeste 0 -- -- 59
2019-11-04 09:00:00 12.9 11 Oeste 30 Oeste 0 -- -- 66
2019-11-04 08:00:00 12.6 9 Oeste 28 Oeste 0 -- -- 69
2019-11-04 07:00:00 13 10 Oeste 28 Oeste 0 -- -- 68
2019-11-04 06:00:00 13.3 9 Sudoeste 32 Sudoeste 0 -- -- 70
2019-11-04 05:00:00 13.2 9 Oeste 50 Oeste 0 -- -- 70
2019-11-04 04:00:00 13.2 18 Sudoeste 50 Oeste 0 -- -- 67
2019-11-04 03:00:00 12.5 15 Sudoeste 39 Oeste 0 -- -- 64
2019-11-04 02:00:00 13.5 12 Sur 35 Sudoeste 0 -- -- 62
2019-11-04 01:00:00 13.4 13 Oeste 40 Sudoeste 0 -- -- 57
2019-11-04 00:00:00 12.6 12 Oeste 32 Sudoeste 0 -- -- 57
2019-11-03 23:00:00 11.9 8 Sudoeste 53 Oeste 0 -- -- 55
2019-11-03 22:00:00 11.6 12 Sudoeste 27 Oeste 0 -- -- 56
2019-11-03 21:00:00 11.6 4 Sur 31 Oeste 0 -- -- 54
2019-11-03 20:00:00 11.5 9 Oeste 29 Oeste 0 -- -- 54
2019-11-03 19:00:00 11.2 3 Oeste 14 Sudoeste 0 -- -- 55
2019-11-03 18:00:00 11.9 5 Noroeste 31 Norte 0 -- -- 52
2019-11-03 17:00:00 13.5 10 Noroeste 44 Noroeste 0 -- -- 49
2019-11-03 16:00:00 14.3 15 Oeste 49 Noroeste 0 -- -- 44
2019-11-03 15:00:00 13.8 20 Noroeste 54 Noroeste 0 -- -- 46
2019-11-03 14:00:00 13.6 22 Noroeste 57 Noroeste 0 -- -- 46
2019-11-03 13:00:00 13 20 Noroeste 51 Noroeste 0 -- -- 50
2019-11-03 12:00:00 12 24 Noroeste 54 Noroeste 0 -- -- 55
2019-11-03 11:00:00 11.8 25 Noroeste 62 Noroeste 0 -- -- 62
2019-11-03 10:00:00 10 13 Noroeste 69 Noroeste 1 -- -- 73
2019-11-03 09:00:00 13.7 19 Oeste 49 Oeste 0 -- -- 70
2019-11-03 08:00:00 14.1 16 Sudoeste 35 Oeste 0 -- -- 61
2019-11-03 07:00:00 14.1 13 Sudoeste 36 Noroeste 0 -- -- 61
2019-11-03 06:00:00 13.5 17 Oeste 39 Oeste 0 -- -- 63
2019-11-03 05:00:00 13.3 15 Oeste 42 Oeste 0 -- -- 63
2019-11-03 04:00:00 13.3 21 Sudoeste 50 Sudoeste 0 -- -- 61
2019-11-03 03:00:00 13.7 20 Oeste 41 Sudoeste 0 -- -- 59
2019-11-03 02:00:00 14.2 11 Oeste 32 Oeste 0 -- -- 58
2019-11-03 01:00:00 14.5 9 Oeste 31 Sudoeste 0 -- -- 61
2019-11-03 00:00:00 14.6 9 Sudoeste 37 Sudoeste 0 -- -- 64
2019-11-02 23:00:00 14.6 8 Sur 27 Oeste 0 -- -- 71
2019-11-02 22:00:00 15 7 Sudoeste 24 Sudoeste 0 -- -- 65
2019-11-02 21:00:00 15.3 5 Sudoeste 27 Oeste 0 -- -- 63
2019-11-02 20:00:00 15.8 13 Oeste 32 Oeste 0 -- -- 63
2019-11-02 19:00:00 16.1 9 Oeste 32 Noroeste 0 -- -- 63
2019-11-02 18:00:00 16.8 8 Sudoeste 24 Sudoeste 0 -- -- 60
2019-11-02 17:00:00 18.3 10 Sudoeste 29 Oeste 0 -- -- 53
2019-11-02 16:00:00 18.8 13 Oeste 41 Sudoeste 0 -- -- 52
2019-11-02 15:00:00 19 19 Oeste 36 Sudoeste 0 -- -- 53
2019-11-02 14:00:00 19.1 9 Sudoeste 27 Oeste 0 -- -- 52
2019-11-02 13:00:00 19.5 9 Oeste 32 Oeste 0 -- -- 51
2019-11-02 12:00:00 18.2 13 Oeste 35 Oeste 0 -- -- 57
2019-11-02 11:00:00 16.7 10 Noroeste 32 Oeste 0 -- -- 62
2019-11-02 10:00:00 15.8 5 Oeste 14 Este 0 -- -- 68
2019-11-02 09:00:00 14.1 5 Sur 14 Oeste 0 -- -- 74
2019-11-02 08:00:00 12.5 4 Sudeste 12 Sudeste 0 -- -- 81
2019-11-02 07:00:00 13.5 3 Norte 17 Sudoeste 0 -- -- 76
2019-11-02 06:00:00 14.1 6 Oeste 14 Noroeste 0 -- -- 74
2019-11-02 05:00:00 14.7 7 Norte 22 Noroeste 0 -- -- 73
2019-11-02 04:00:00 15.1 8 Noroeste 28 Oeste 0 -- -- 71
2019-11-02 03:00:00 15.6 12 Oeste 32 Sudoeste 0 -- -- 70
2019-11-02 02:00:00 15.7 11 Noroeste 35 Noroeste 0 -- -- 73
2019-11-02 01:00:00 16.1 10 Noroeste 33 Noroeste 0 -- -- 71
2019-11-02 00:00:00 16.4 8 Oeste 27 Sur 0 -- -- 71
2019-11-01 23:00:00 16.5 8 Noroeste 28 Sudoeste 0 -- -- 71
2019-11-01 22:00:00 16.9 7 Oeste 24 Sudoeste 0 -- -- 73
2019-11-01 21:00:00 16.8 3 Noroeste 14 Oeste 0 -- -- 74
2019-11-01 20:00:00 17.5 5 Oeste 19 Sudoeste 0 -- -- 71
2019-11-01 19:00:00 17.7 6 Sudoeste 18 Noroeste 0 -- -- 71
2019-11-01 18:00:00 18.2 8 Oeste 30 Sudoeste 0 -- -- 70
2019-11-01 17:00:00 19.4 10 Oeste 25 Noroeste 0 -- -- 62
2019-11-01 16:00:00 20.1 9 Oeste 25 Oeste 0 -- -- 59
2019-11-01 15:00:00 20.3 14 Noroeste 32 Noroeste 0 -- -- 57
2019-11-01 14:00:00 19.7 14 Noroeste 28 Oeste 0 -- -- 58
2019-11-01 13:00:00 19 11 Noroeste 30 Noroeste 0 -- -- 64
2019-11-01 12:00:00 18.1 14 Noroeste 32 Oeste 0 -- -- 67
2019-11-01 11:00:00 17.8 13 Noroeste 31 Oeste 0 -- -- 71
2019-11-01 10:00:00 15.5 11 Oeste 32 Sudoeste 0 -- -- 80
2019-11-01 09:00:00 13.4 3 Noroeste 13 Noroeste 0 -- -- 86
2019-11-01 08:00:00 12.5 4 Noroeste 10 Noroeste 0 -- -- 88
2019-11-01 07:00:00 12.9 3 Noroeste 10 Oeste 0 -- -- 85
2019-11-01 06:00:00 13.6 4 Noroeste 12 Oeste 0 -- -- 80
2019-11-01 05:00:00 13.1 2 Nordeste 9 Noroeste 0 -- -- 83
2019-11-01 04:00:00 11.7 4 Noroeste 7 Sudoeste 0 -- -- 88
2019-11-01 03:00:00 10.3 0 Calma 8 Oeste 0 -- -- 93
2019-11-01 02:00:00 9.5 0 Calma 5 Sudeste 0 -- -- 93
2019-11-01 01:00:00 9.8 2 Sudeste 5 Sudeste 0 -- -- 91
2019-11-01 00:00:00 9.6 0 Calma 4 Sudeste 0 -- -- 91
2019-10-31 23:00:00 10.2 2 Sudeste 7 Sudeste 0 -- -- 91
2019-10-31 22:00:00 11 0 Calma 4 Noroeste 0 -- -- 87
2019-10-31 21:00:00 12.3 0 Calma 4 Norte 0 -- -- 84
2019-10-31 20:00:00 13.3 0 Calma 4 Sudeste 0 -- -- 80
2019-10-31 19:00:00 14.1 2 Sur 19 Oeste 0 -- -- 77
2019-10-31 18:00:00 15.3 10 Oeste 20 Sudoeste 0 -- -- 74
2019-10-31 17:00:00 16.6 6 Sudoeste 23 Oeste 0 -- -- 70
2019-10-31 16:00:00 17.3 10 Noroeste 26 Oeste 0 -- -- 63
2019-10-31 15:00:00 19 8 Noroeste 25 Oeste 0 -- -- 59
2019-10-31 14:00:00 18.4 13 Noroeste 25 Noroeste 0 -- -- 60
2019-10-31 13:00:00 18.2 10 Noroeste 30 Noroeste 0 -- -- 60
2019-10-31 12:00:00 16.1 14 Noroeste 30 Noroeste 0 -- -- 66
2019-10-31 11:00:00 15.3 12 Noroeste 25 Noroeste 0 -- -- 72
2019-10-31 10:00:00 14.8 5 Noroeste 14 Noroeste 0 -- -- 78
2019-10-31 09:00:00 14 5 Noroeste 13 Oeste 0 -- -- 83
2019-10-31 08:00:00 13.5 4 Noroeste 14 Noroeste 0 -- -- 84
2019-10-31 07:00:00 13.7 4 Noroeste 24 Oeste 0 -- -- 83
2019-10-31 06:00:00 14 4 Noroeste 15 Noroeste 0 -- -- 81
2019-10-31 05:00:00 13.5 2 Norte 12 Norte 0 -- -- 82
2019-10-31 04:00:00 13.7 0 Calma 13 Oeste 0 -- -- 80
2019-10-31 03:00:00 14.1 5 Noroeste 20 Oeste 0 -- -- 79
2019-10-31 02:00:00 14.4 5 Noroeste 20 Sudoeste 0 -- -- 77
2019-10-31 01:00:00 14.8 4 Oeste 17 Oeste 0 -- -- 75
2019-10-31 00:00:00 14.5 6 Noroeste 14 Oeste 0 -- -- 74
2019-10-30 23:00:00 14.7 3 Sudoeste 15 Oeste 0 -- -- 70
2019-10-30 22:00:00 15.4 0 Calma 8 Noroeste 0 -- -- 67
2019-10-30 21:00:00 15.5 3 Norte 5 Noroeste 0 -- -- 68
2019-10-30 20:00:00 15.8 2 Norte 6 Oeste 0 -- -- 66
2019-10-30 19:00:00 16.4 0 Calma 7 Noroeste 0 -- -- 66
2019-10-30 18:00:00 16.9 0 Calma 7 Sudoeste 0 -- -- 65
2019-10-30 17:00:00 18.2 3 Oeste 14 Oeste 0 -- -- 60
2019-10-30 16:00:00 18.2 7 Noroeste 18 Oeste 0 -- -- 59
2019-10-30 15:00:00 18.8 6 Oeste 17 Sudoeste 0 -- -- 57
2019-10-30 14:00:00 18.9 8 Oeste 20 Oeste 0 -- -- 58
2019-10-30 13:00:00 18.4 9 Noroeste 23 Noroeste 0 -- -- 61
2019-10-30 12:00:00 17.3 9 Oeste 20 Oeste 0 -- -- 64
2019-10-30 11:00:00 15 4 Noroeste 8 Noroeste 0 -- -- 73
2019-10-30 10:00:00 10.8 0 Calma 4 Sudeste 0 -- -- 94
2019-10-30 09:00:00 8 0 Calma 4 Sudeste 0 -- -- 94
2019-10-30 08:00:00 7.9 3 Sudeste 7 Sudeste 0 -- -- 95
2019-10-30 07:00:00 7.9 0 Calma 6 Sudeste 0 -- -- 93
2019-10-30 06:00:00 8.4 0 Calma 4 Este 0 -- -- 94
2019-10-30 05:00:00 8.8 0 Calma 5 Sudeste 0 -- -- 92
2019-10-30 04:00:00 9.7 3 Sudeste 5 Sudeste 0 -- -- 92
2019-10-30 03:00:00 9.7 0 Calma 3 Sudeste 0 -- -- 91
2019-10-30 02:00:00 10.3 0 Calma 4 Este 0 -- -- 89
2019-10-30 01:00:00 10.8 0 Calma 5 Norte 0 -- -- 88
2019-10-30 00:00:00 11.4 0 Calma 5 Sudeste 0 -- -- 86
2019-10-29 23:00:00 12.6 0 Calma 5 Oeste 0 -- -- 82
2019-10-29 22:00:00 12.7 0 Calma 4 Oeste 0 -- -- 83
2019-10-29 21:00:00 13.1 0 Calma 6 Norte 0 -- -- 82
2019-10-29 20:00:00 14.5 0 Calma 6 Norte 0 -- -- 76
2019-10-29 19:00:00 16.1 0 Calma 4 Este 0 -- -- 70
2019-10-29 18:00:00 17.9 0 Calma 9 Sudoeste 0 -- -- 65
2019-10-29 17:00:00 20.3 6 Norte 15 Noroeste 0 -- -- 56
2019-10-29 16:00:00 21.8 4 Oeste 11 Noroeste 0 -- -- 47
2019-10-29 15:00:00 21.3 4 Oeste 14 Oeste 0 -- -- 50
2019-10-29 14:00:00 21.1 3 Sudoeste 9 Oeste 0 -- -- 50
2019-10-29 13:00:00 19.4 6 Oeste 14 Sudoeste 0 -- -- 55
2019-10-29 12:00:00 18.2 6 Oeste 15 Norte 0 -- -- 61
2019-10-29 11:00:00 17.1 6 Noroeste 16 Oeste 0 -- -- 65
2019-10-29 10:00:00 13.2 0 Calma 5 Sudeste 0 -- -- 76
2019-10-29 09:00:00 9.7 0 Calma 5 Sudeste 0 -- -- 87
2019-10-29 08:00:00 9.2 0 Calma 5 Sur 0 -- -- 87
2019-10-29 07:00:00 9.3 2 Este 5 Norte 0 -- -- 87
2019-10-29 06:00:00 9.3 2 Sudeste 8 Oeste 0 -- -- 86
2019-10-29 05:00:00 9 0 Calma 8 Sudeste 0 -- -- 88
2019-10-29 04:00:00 9.5 2 Sudeste 7 Sudoeste 0 -- -- 86
2019-10-29 03:00:00 9.3 0 Calma 5 Sudeste 0 -- -- 86
2019-10-29 02:00:00 9.6 0 Calma 7 Sudeste 0 -- -- 85
2019-10-29 01:00:00 9.7 2 Sudeste 5 Sur 0 -- -- 84
2019-10-29 00:00:00 10.2 3 Sudeste 7 Oeste 0 -- -- 81
2019-10-28 23:00:00 10.5 0 Calma 6 Sudeste 0 -- -- 81
2019-10-28 22:00:00 10.8 2 Sudeste 6 Norte 0 -- -- 80
2019-10-28 21:00:00 12 0 Calma 5 Este 0 -- -- 76
2019-10-28 20:00:00 13.1 0 Calma 4 Nordeste 0 -- -- 76
2019-10-28 19:00:00 15.3 0 Calma 5 Nordeste 0 -- -- 68
2019-10-28 18:00:00 17.7 2 Este 7 Sur 0 -- -- 60
2019-10-28 17:00:00 19.4 2 Sudoeste 13 Nordeste 0 -- -- 55
2019-10-28 16:00:00 19.5 5 Oeste 15 Norte 0 -- -- 48
2019-10-28 15:00:00 19.4 4 Noroeste 14 Oeste 0 -- -- 48
2019-10-28 14:00:00 18.6 3 Oeste 8 Oeste 0 -- -- 54
2019-10-28 13:00:00 16.9 2 Oeste 10 Oeste 0 -- -- 60
2019-10-28 12:00:00 15.2 2 Noroeste 5 Noroeste 0 -- -- 71
2019-10-28 11:00:00 13.7 0 Calma 5 Norte 0 -- -- 77
2019-10-28 10:00:00 12.2 0 Calma 7 Oeste 0 -- -- 83
2019-10-28 09:00:00 11.6 0 Calma 4 Sudeste 0 -- -- 89
2019-10-28 08:00:00 10.9 0 Calma 6 Noroeste 0 -- -- 88
2019-10-28 07:00:00 10.9 0 Calma 4 Sudeste 0 -- -- 88
2019-10-28 06:00:00 11.1 0 Calma 5 Sudeste 0 -- -- 87
2019-10-28 05:00:00 11.6 0 Calma 3 Sudeste 0 -- -- 85
2019-10-28 04:00:00 12.4 0 Calma 3 Este 0 -- -- 82
2019-10-28 03:00:00 12.1 0 Calma 5 Este 0 -- -- 84
2019-10-28 02:00:00 11.1 2 Sudeste 5 Noroeste 0 -- -- 88
2019-10-28 01:00:00 11.8 3 Sudeste 9 Sudeste 0 -- -- 86
2019-10-28 00:00:00 11.8 0 Calma 5 Nordeste 0 -- -- 84
2019-10-27 23:00:00 11.8 0 Calma 5 Noroeste 0 -- -- 84
2019-10-27 22:00:00 12.2 0 Calma 3 Noroeste 0 -- -- 83
2019-10-27 21:00:00 12.6 0 Calma 4 Noroeste 0 -- -- 82
2019-10-27 20:00:00 13.8 0 Calma 4 Oeste 0 -- -- 76
2019-10-27 19:00:00 15.5 0 Calma 4 Sudeste 0 -- -- 72
2019-10-27 18:00:00 17.6 0 Calma 17 Noroeste 0 -- -- 65
2019-10-27 17:00:00 20.6 3 Sudoeste 18 Norte 0 -- -- 55
2019-10-27 16:00:00 21.1 6 Noroeste 17 Oeste 0 -- -- 46
2019-10-27 15:00:00 20.7 6 Norte 15 Nordeste 0 -- -- 47
2019-10-27 14:00:00 19.8 2 Sur 11 Nordeste 0 -- -- 48
2019-10-27 13:00:00 19.8 3 Norte 8 Noroeste 0 -- -- 42
2019-10-27 12:00:00 17.6 3 Oeste 6 Oeste 0 -- -- 57
2019-10-27 11:00:00 14.5 0 Calma 6 Sudeste 0 -- -- 72
2019-10-27 10:00:00 9.6 0 Calma 6 Oeste 0 -- -- 90
2019-10-27 09:00:00 6.3 0 Calma 3 Nordeste 0 -- -- 94
2019-10-27 08:00:00 5.8 0 Calma 5 Sudeste 0 -- -- 94
2019-10-27 07:00:00 6 0 Calma 4 Sudeste 0 -- -- 94
2019-10-27 06:00:00 6 0 Calma 4 Nordeste 0 -- -- 92
2019-10-27 05:00:00 6.7 0 Calma 4 Sudeste 0 -- -- 92
2019-10-27 04:00:00 7.2 0 Calma 5 Sudeste 0 -- -- 92
2019-10-27 03:00:00 7.4 0 Calma 4 Sudeste 0 -- -- 92
2019-10-27 02:00:00 8 0 Calma 6 Sur 0 -- -- 90
2019-10-27 01:00:00 8.8 0 Calma 5 Este 0 -- -- 89
2019-10-27 00:00:00 9.7 0 Calma 4 Este 0 -- -- 85
2019-10-26 23:00:00 10.5 0 Calma 4 Sudeste 0 -- -- 83
2019-10-26 22:00:00 11.6 2 Norte 6 Sudeste 0 -- -- 80
2019-10-26 21:00:00 13.5 0 Calma 3 Norte 0 -- -- 73
2019-10-26 20:00:00 15.7 2 Este 5 Este 0 -- -- 66
2019-10-26 19:00:00 17.6 0 Calma 12 Noroeste 0 -- -- 61
2019-10-26 18:00:00 20.9 3 Sudoeste 17 Oeste 0 -- -- 51
2019-10-26 17:00:00 21.2 6 Noroeste 16 Norte 0 -- -- 49
2019-10-26 16:00:00 22.6 3 Sur 9 Oeste 0 -- -- 32
2019-10-26 15:00:00 21.8 3 Sudoeste 11 Sudoeste 0 -- -- 36
2019-10-26 14:00:00 20.4 5 Noroeste 10 Oeste 0 -- -- 41
2019-10-26 13:00:00 18.2 4 Oeste 8 Noroeste 0 -- -- 49
2019-10-26 12:00:00 14.8 0 Calma 7 Sudeste 0 -- -- 67
2019-10-26 11:00:00 9.8 0 Calma 4 Nordeste 0 -- -- 87
2019-10-26 10:00:00 6 0 Calma 4 Sudeste 0 -- -- 92
2019-10-26 09:00:00 5.5 0 Calma 6 Sudeste 0 -- -- 91
2019-10-26 08:00:00 5.9 0 Calma 6 Sudeste 0 -- -- 92
2019-10-26 07:00:00 6.3 0 Calma 5 Sudeste 0 -- -- 90
2019-10-26 06:00:00 6.4 2 Sudeste 6 Sudeste 0 -- -- 90
2019-10-26 05:00:00 6.7 0 Calma 4 Este 0 -- -- 89
2019-10-26 04:00:00 7.3 2 Sudeste 5 Sudoeste 0 -- -- 87
2019-10-26 03:00:00 7.5 0 Calma 5 Sudoeste 0 -- -- 86
2019-10-26 02:00:00 7.8 3 Sudeste 7 Sudoeste 0 -- -- 85
2019-10-26 01:00:00 8.6 2 Sudeste 4 Este 0 -- -- 83
2019-10-26 00:00:00 9.3 0 Calma 4 Sur 0 -- -- 81
2019-10-25 23:00:00 10.4 0 Calma 4 Oeste 0 -- -- 77
2019-10-25 22:00:00 11.6 0 Calma 6 Oeste 0 -- -- 73
2019-10-25 21:00:00 13.4 0 Calma 5 Norte 0 -- -- 67
2019-10-25 20:00:00 15.7 0 Calma 2 Sudeste 0 -- -- 59
2019-10-25 19:00:00 18.5 0 Calma 14 Noroeste 0 -- -- 50
2019-10-25 18:00:00 20.8 7 Oeste 18 Oeste 0 -- -- 42
2019-10-25 17:00:00 21 9 Oeste 20 Oeste 0 -- -- 40
2019-10-25 16:00:00 21.4 7 Oeste 17 Noroeste 0 -- -- 46
2019-10-25 15:00:00 20.5 6 Oeste 18 Oeste 0 -- -- 49
2019-10-25 14:00:00 18.5 7 Oeste 16 Oeste 0 -- -- 56
2019-10-25 13:00:00 16.1 5 Oeste 14 Oeste 0 -- -- 66
2019-10-25 12:00:00 13.8 5 Noroeste 16 Oeste 0 -- -- 74
2019-10-25 11:00:00 11.6 5 Oeste 16 Norte 0 -- -- 82
2019-10-25 10:00:00 9.2 3 Noroeste 9 Noroeste 0 -- -- 89
2019-10-25 09:00:00 8.8 4 Noroeste 8 Noroeste 0 -- -- 89
2019-10-25 08:00:00 9 3 Noroeste 10 Noroeste 0 -- -- 87
2019-10-25 07:00:00 9 4 Noroeste 11 Noroeste 0 -- -- 88
2019-10-25 06:00:00 9.3 4 Norte 9 Noroeste 0 -- -- 87
2019-10-25 05:00:00 8 3 Norte 8 Noroeste 0 -- -- 89
2019-10-25 04:00:00 8.5 0 Calma 5 Este 0 -- -- 89
2019-10-25 03:00:00 8.6 3 Noroeste 7 Oeste 0 -- -- 86
2019-10-25 02:00:00 9.8 3 Noroeste 8 Oeste 0 -- -- 83
2019-10-25 01:00:00 9.9 3 Noroeste 15 Noroeste 0 -- -- 82
2019-10-25 00:00:00 10.6 9 Noroeste 24 Oeste 0 -- -- 79
2019-10-24 23:00:00 10.5 5 Noroeste 12 Oeste 0 -- -- 78
2019-10-24 22:00:00 10.5 3 Oeste 6 Sudoeste 0 -- -- 76
2019-10-24 21:00:00 10.4 0 Calma 9 Noroeste 0 -- -- 72
2019-10-24 20:00:00 11.5 4 Noroeste 17 Oeste 0 -- -- 67
2019-10-24 19:00:00 12.9 7 Oeste 17 Noroeste 0 -- -- 57
2019-10-24 18:00:00 14.5 5 Noroeste 20 Oeste 0 -- -- 54
2019-10-24 17:00:00 14.7 9 Oeste 27 Oeste 0 -- -- 53
2019-10-24 16:00:00 13.5 13 Noroeste 23 Sudoeste 0 -- -- 59
2019-10-24 15:00:00 10.8 8 Noroeste 22 Oeste 0 -- -- 67
2019-10-24 14:00:00 10.2 8 Noroeste 23 Oeste 0 -- -- 68
2019-10-24 13:00:00 10.2 8 Oeste 30 Noroeste 0 -- -- 69
2019-10-24 12:00:00 9.7 13 Noroeste -- -- -- -- -- 70
2019-10-24 11:00:00 8.7 10 Noroeste 21 Sudoeste 0 -- -- 79
2019-10-24 10:00:00 7.9 7 Oeste 15 Oeste 0.2 -- -- 89
2019-10-24 09:00:00 6.7 0 Calma 5 Sudeste 0 -- -- 94
2019-10-24 08:00:00 6.3 0 Calma 4 Este 0 -- -- 94
2019-10-24 07:00:00 6 0 Calma 6 Sudoeste 0.2 -- -- 91
2019-10-24 06:00:00 5.5 0 Calma 4 Noroeste 0 -- -- 88
2019-10-24 05:00:00 5.4 0 Calma 6 Norte 0 -- -- 87
2019-10-24 04:00:00 4.8 2 Norte 8 Noroeste 0 -- -- 88
2019-10-24 03:00:00 4.9 4 Noroeste 10 Sudoeste 0 -- -- 86
2019-10-24 02:00:00 5.6 3 Oeste 10 Noroeste 0 -- -- 84
2019-10-24 01:00:00 6.2 5 Noroeste 15 Oeste 0 -- -- 81
2019-10-24 00:00:00 7.8 3 Este 16 Oeste 0 -- -- 70
2019-10-23 23:00:00 8.4 7 Oeste 19 Sudoeste 0 -- -- 71
2019-10-23 22:00:00 7.9 2 Noroeste 13 Oeste 0 -- -- 76
2019-10-23 21:00:00 8.5 5 Sudoeste 13 Oeste 0 -- -- 72
2019-10-23 20:00:00 9.1 3 Sur 18 Oeste 0 -- -- 68
2019-10-23 19:00:00 10.7 5 Oeste 17 Oeste 0 -- -- 62
2019-10-23 18:00:00 12.5 6 Sudoeste 19 Oeste 0 -- -- 56
2019-10-23 17:00:00 12.5 7 Sur 22 Sudoeste 0 -- -- 58
2019-10-23 16:00:00 13.2 5 Sur 19 Oeste 0 -- -- 54
2019-10-23 15:00:00 11.8 8 Oeste 18 Oeste 0 -- -- 62
2019-10-23 14:00:00 10.5 5 Oeste 17 Sudoeste 0 -- -- 67
2019-10-23 13:00:00 10.4 5 Oeste 13 Sudoeste 0 -- -- 71
2019-10-23 12:00:00 9.6 3 Noroeste 16 Oeste 0 -- -- 73
2019-10-23 11:00:00 8.7 7 Oeste 17 Noroeste 0 -- -- 80
2019-10-23 10:00:00 7.3 3 Oeste 13 Oeste 0 -- -- 86
2019-10-23 09:00:00 6.3 3 Oeste 10 Sudoeste 0 -- -- 95
2019-10-23 08:00:00 5.6 4 Noroeste 12 Noroeste 0 -- -- 97
2019-10-23 07:00:00 5.9 0 Calma 5 Noroeste 0 -- -- 96
2019-10-23 06:00:00 6.5 0 Calma 4 Sur 0 -- -- 97
2019-10-23 05:00:00 6.6 0 Calma 5 Oeste 0.2 -- -- 96
2019-10-23 04:00:00 6.8 0 Calma 4 Sudeste 0.2 -- -- 96
2019-10-23 03:00:00 6.8 2 Este 4 Este 0.6 -- -- 97
2019-10-23 02:00:00 6.7 0 Calma 4 Noroeste 0.6 -- -- 97
2019-10-23 01:00:00 6.7 0 Calma 14 Noroeste 0.2 -- -- 96
2019-10-23 00:00:00 6.8 3 Sudoeste 13 Noroeste 1.2 -- -- 96
2019-10-22 23:00:00 6.8 3 Este 6 Norte 0 -- -- 96
2019-10-22 22:00:00 6.6 3 Sudeste 8 Sudeste 0 -- -- 96
2019-10-22 21:00:00 6.5 0 Calma 4 Sudeste 0 -- -- 96
2019-10-22 20:00:00 6.4 0 Calma 5 Sudeste 0.2 -- -- 95
2019-10-22 19:00:00 6.5 0 Calma 7 Sudeste 0 -- -- 94
2019-10-22 18:00:00 6.7 4 Noroeste 13 Oeste 2 -- -- 93
2019-10-22 17:00:00 7 0 Calma 5 Oeste 2.4 -- -- 95
2019-10-22 16:00:00 6.9 0 Calma 24 Noroeste 4 -- -- 94
2019-10-22 15:00:00 7 11 Oeste 31 Noroeste 1.2 -- -- 93
2019-10-22 14:00:00 7.3 13 Noroeste 28 Noroeste 2.2 -- -- 94
2019-10-22 13:00:00 7.5 0 Calma 10 Noroeste 4.4 -- -- 96
2019-10-22 12:00:00 7.5 0 Calma 5 Sudeste 3 -- -- 95
2019-10-22 11:00:00 7.3 2 Este 11 Oeste 2.6 -- -- 95
2019-10-22 10:00:00 7.3 0 Calma 8 Noroeste 2.6 -- -- 95
2019-10-22 09:00:00 7.3 2 Sudeste 8 Sudoeste 1.4 -- -- 95
2019-10-22 08:00:00 7.1 0 Calma 10 Este 1.2 -- -- 96
2019-10-22 07:00:00 6.3 0 Calma 5 Sudoeste 0 -- -- 96
2019-10-22 06:00:00 5.8 0 Calma 5 Nordeste 0 -- -- 95
2019-10-22 05:00:00 5.5 0 Calma 4 Noroeste 0 -- -- 96
2019-10-22 04:00:00 5.1 0 Calma 3 Oeste 0 -- -- 94
2019-10-22 03:00:00 4.9 0 Calma 3 Sur 0 -- -- 94
2019-10-22 02:00:00 4.9 0 Calma 3 Sur 0 -- -- 95
2019-10-22 01:00:00 5.1 0 Calma 4 Sudeste 0 -- -- 94
2019-10-22 00:00:00 5.4 0 Calma 4 Sudeste 0 -- -- 94